Time;durP1;ratioP1;P1;durP2;ratioP2;P2;SDS_P1;SDS_P2;PMS_P1;PMS_P2;Temp;Humidity;BMP_temperature;BMP_pressure;BME280_temperature;BME280_humidity;BME280_pressure;Samples;Min_cycle;Max_cycle;Signal;HPM_P1;HPM_P2
2022/12/07 00:01:28;;;;;;;;;;;;;;;5.11;77.78;98384.09;7391151;19;19922;-70
2022/12/07 00:04:04;;;;;;;;;;;;;;;5.02;77.71;98385.63;7387872;19;19922;-70
2022/12/07 00:06:31;;;;;;;;;;;;;;;5.07;77.33;98380.84;7393045;19;19914;-70
2022/12/07 00:08:58;;;;;;;;;;;;;;;5.05;77.53;98379.31;7393469;19;19947;-70
2022/12/07 00:11:25;;;;;;;;;;;;;;;4.99;77.97;98377.19;7388273;19;19911;-70
2022/12/07 00:13:58;;;;;;;;;;;;;;;5.03;78.06;98373.38;7386532;19;20364;-70
2022/12/07 00:16:26;;;;;;;;;;;;;;;4.98;78.30;98378.16;7388862;19;19944;-70
2022/12/07 00:18:53;;;;;;;;;;;;;;;5.02;77.63;98374.31;7391118;19;20011;-70
2022/12/07 00:21:26;;;;;;;;;;;;;;;4.80;78.08;98376.00;7386418;19;19921;-70
2022/12/07 00:23:54;;;;;;;;;;;;;;;4.89;77.75;98384.09;7390066;19;19919;-70
2022/12/07 00:26:21;;;;;;;;;;;;;;;4.91;77.42;98374.34;7391130;19;19934;-70
2022/12/07 00:28:48;;;;;;;;;;;;;;;4.92;77.59;98379.44;7390849;19;19947;-71
2022/12/07 00:31:16;;;;;;;;;;;;;;;4.92;77.43;98374.19;7386745;19;19915;-70
2022/12/07 00:33:42;;;;;;;;;;;;;;;4.93;77.69;98369.81;7390056;19;19942;-70
2022/12/07 00:36:10;;;;;;;;;;;;;;;4.97;77.00;98365.97;7388320;19;19926;-70
2022/12/07 00:38:37;;;;;;;;;;;;;;;4.95;77.36;98363.50;7391750;19;19922;-70
2022/12/07 00:41:04;;;;;;;;;;;;;;;4.89;77.58;98368.38;7386831;19;19926;-71
2022/12/07 00:43:31;;;;;;;;;;;;;;;4.88;77.42;98364.91;7390509;19;19914;-70
2022/12/07 00:45:57;;;;;;;;;;;;;;;4.82;77.70;98363.63;7387784;19;19947;-70
2022/12/07 00:48:24;;;;;;;;;;;;;;;4.88;77.46;98364.09;7389267;19;19929;-70
2022/12/07 00:50:51;;;;;;;;;;;;;;;4.87;78.05;98367.66;7385171;19;19947;-71
2022/12/07 00:53:18;;;;;;;;;;;;;;;4.87;77.97;98373.75;7387883;19;20375;-70
2022/12/07 00:55:44;;;;;;;;;;;;;;;4.76;78.16;98369.31;7386697;19;19923;-70
2022/12/07 00:58:11;;;;;;;;;;;;;;;4.79;78.15;98371.72;7389860;19;19923;-70
2022/12/07 01:00:39;;;;;;;;;;;;;;;4.89;78.11;98377.06;7386999;19;19940;-71
2022/12/07 01:03:05;;;;;;;;;;;;;;;4.96;77.58;98380.88;7390127;19;19911;-70
2022/12/07 01:05:32;;;;;;;;;;;;;;;4.91;77.55;98379.56;7384641;19;19922;-70
2022/12/07 01:07:59;;;;;;;;;;;;;;;4.98;77.15;98373.75;7381005;19;19923;-70
2022/12/07 01:10:25;;;;;;;;;;;;;;;4.97;77.27;98369.44;7386334;19;19986;-70
2022/12/07 01:12:52;;;;;;;;;;;;;;;4.88;77.25;98370.16;7388053;19;19918;-70
2022/12/07 01:15:18;;;;;;;;;;;;;;;4.78;77.40;98372.66;7384265;19;19922;-70
2022/12/07 01:17:45;;;;;;;;;;;;;;;4.76;77.66;98371.94;7389159;19;19907;-70
2022/12/07 01:20:12;;;;;;;;;;;;;;;4.68;78.14;98374.31;7386866;19;19931;-70
2022/12/07 01:22:38;;;;;;;;;;;;;;;4.60;78.06;98376.69;7387659;19;19922;-70
2022/12/07 01:25:05;;;;;;;;;;;;;;;4.64;78.66;98378.16;7388633;19;20376;-70
2022/12/07 01:27:32;;;;;;;;;;;;;;;4.67;78.82;98380.53;7384939;19;22327;-70
2022/12/07 01:29:59;;;;;;;;;;;;;;;4.71;78.35;98384.56;7387680;19;19923;-69
2022/12/07 01:32:26;;;;;;;;;;;;;;;4.69;77.97;98376.00;7388120;19;19923;-70
2022/12/07 01:34:53;;;;;;;;;;;;;;;4.74;77.33;98384.34;7390167;19;20515;-70
2022/12/07 01:37:19;;;;;;;;;;;;;;;4.71;76.95;98381.94;7385882;19;19919;-70
2022/12/07 01:39:48;;;;;;;;;;;;;;;4.46;77.60;98382.19;7386875;19;19957;-72
2022/12/07 01:42:14;;;;;;;;;;;;;;;4.62;77.38;98386.13;7387199;19;19926;-70
2022/12/07 01:44:59;;;;;;;;;;;;;;;4.49;77.57;98381.94;7387195;19;19951;-69
2022/12/07 01:47:26;;;;;;;;;;;;;;;4.48;77.57;98383.72;7387187;19;19926;-70
2022/12/07 01:49:52;;;;;;;;;;;;;;;4.42;77.70;98385.97;7384505;19;19947;-69
2022/12/07 01:52:22;;;;;;;;;;;;;;;4.47;77.62;98386.44;7387283;19;19915;-69
2022/12/07 01:54:49;;;;;;;;;;;;;;;4.38;77.89;98394.06;7386644;19;19919;-70
2022/12/07 01:57:16;;;;;;;;;;;;;;;4.51;77.73;98386.09;7384760;19;19922;-70
2022/12/07 01:59:43;;;;;;;;;;;;;;;4.48;77.95;98388.13;7379796;19;20375;-70
2022/12/07 02:02:11;;;;;;;;;;;;;;;4.43;78.01;98391.09;7384705;19;20254;-69
2022/12/07 02:04:38;;;;;;;;;;;;;;;4.36;78.18;98395.97;7386099;19;20645;-70
2022/12/07 02:07:04;;;;;;;;;;;;;;;4.36;78.24;98389.88;7385675;19;19933;-70
2022/12/07 02:09:31;;;;;;;;;;;;;;;4.36;78.17;98389.88;7385732;19;19923;-70
2022/12/07 02:11:57;;;;;;;;;;;;;;;4.45;77.92;98385.72;7384129;19;19918;-69
2022/12/07 02:14:24;;;;;;;;;;;;;;;4.48;77.74;98382.91;7382543;19;19915;-69
2022/12/07 02:16:57;;;;;;;;;;;;;;;4.46;77.81;98384.78;7384531;19;19923;-70
2022/12/07 02:19:42;;;;;;;;;;;;;;;4.38;77.73;98391.44;7383685;19;19911;-69
2022/12/07 02:22:27;;;;;;;;;;;;;;;4.24;78.50;98390.81;7388617;19;19903;-70
2022/12/07 02:24:54;;;;;;;;;;;;;;;4.27;78.01;98383.56;7386871;19;19947;-69
2022/12/07 02:27:43;;;;;;;;;;;;;;;4.22;78.04;98379.63;7385505;19;19939;-69
2022/12/07 02:30:11;;;;;;;;;;;;;;;4.25;78.03;98382.84;7381216;19;19926;-70
2022/12/07 02:32:40;;;;;;;;;;;;;;;4.20;78.17;98378.91;7383146;19;19927;-71
2022/12/07 02:35:11;;;;;;;;;;;;;;;4.24;77.96;98370.72;7387698;19;20371;-70
2022/12/07 02:37:42;;;;;;;;;;;;;;;4.38;77.30;98367.03;7385280;19;19923;-70
2022/12/07 02:40:11;;;;;;;;;;;;;;;4.12;78.08;98366.38;7381598;19;19919;-70
2022/12/07 02:42:39;;;;;;;;;;;;;;;4.08;78.45;98371.03;7384404;19;20347;-70
2022/12/07 02:45:06;;;;;;;;;;;;;;;4.14;78.13;98364.50;7382285;19;19922;-70
2022/12/07 02:47:32;;;;;;;;;;;;;;;4.23;77.79;98357.72;7385601;19;20454;-70
2022/12/07 02:49:59;;;;;;;;;;;;;;;4.29;77.56;98367.72;7381719;19;19911;-69
2022/12/07 02:52:26;;;;;;;;;;;;;;;4.17;nan;98361.66;7385341;19;19942;-70
2022/12/07 02:54:53;;;;;;;;;;;;;;;4.12;78.29;98361.16;7388574;19;19935;-70
2022/12/07 02:57:33;;;;;;;;;;;;;;;4.16;78.01;98357.34;7384537;19;19959;-70
2022/12/07 03:00:02;;;;;;;;;;;;;;;4.27;77.75;98354.75;7382897;19;19926;-70
2022/12/07 03:02:33;;;;;;;;;;;;;;;4.28;77.79;98355.59;7380735;19;19922;-70
2022/12/07 03:05:00;;;;;;;;;;;;;;;4.29;77.73;98352.88;7381916;19;20340;-70
2022/12/07 03:07:29;;;;;;;;;;;;;;;4.22;77.94;98351.66;7384056;19;19922;-69
2022/12/07 03:10:01;;;;;;;;;;;;;;;4.34;77.51;98349.88;7385096;19;19954;-69
2022/12/07 03:12:32;;;;;;;;;;;;;;;4.35;77.41;98351.56;7386270;19;20339;-70
2022/12/07 03:15:01;;;;;;;;;;;;;;;4.37;77.42;98349.63;7392814;19;19919;-69
2022/12/07 03:17:28;;;;;;;;;;;;;;;4.27;77.85;98351.31;7391085;19;19943;-70
2022/12/07 03:19:56;;;;;;;;;;;;;;;4.34;77.63;98348.09;7393047;19;20034;-70
2022/12/07 03:22:23;;;;;;;;;;;;;;;4.40;77.58;98350.25;7389126;19;19947;-70
2022/12/07 03:24:52;;;;;;;;;;;;;;;4.24;77.73;98346.28;7388682;19;19923;-70
2022/12/07 03:27:20;;;;;;;;;;;;;;;4.31;77.82;98356.19;7392062;19;19925;-70
2022/12/07 03:29:54;;;;;;;;;;;;;;;4.09;78.65;98343.91;7383810;19;19923;-70
2022/12/07 03:32:36;;;;;;;;;;;;;;;4.01;79.17;98348.03;7387060;19;19923;-69
2022/12/07 03:35:09;;;;;;;;;;;;;;;3.94;79.40;98345.88;7394803;19;19943;-70
2022/12/07 03:37:37;;;;;;;;;;;;;;;3.88;79.28;98348.94;7394274;19;19943;-70
2022/12/07 03:40:07;;;;;;;;;;;;;;;3.84;79.33;98344.88;7389419;19;20010;-70
2022/12/07 03:42:33;;;;;;;;;;;;;;;3.82;79.67;98346.81;7389660;19;19971;-69
2022/12/07 03:45:01;;;;;;;;;;;;;;;3.91;79.50;98348.72;7390800;19;20648;-69
2022/12/07 03:47:30;;;;;;;;;;;;;;;3.92;79.39;98345.16;7389714;19;19943;-70
2022/12/07 03:49:56;;;;;;;;;;;;;;;3.89;79.16;98345.38;7390410;19;20261;-70
2022/12/07 03:52:33;;;;;;;;;;;;;;;3.63;79.26;98343.84;7393820;19;19940;-70
2022/12/07 03:55:15;;;;;;;;;;;;;;;3.42;79.89;98343.63;7388842;19;20368;-70
2022/12/07 03:57:41;;;;;;;;;;;;;;;3.49;79.74;98345.69;7388406;19;19931;-70
2022/12/07 04:00:09;;;;;;;;;;;;;;;3.56;79.86;98340.88;7392101;19;19926;-70
2022/12/07 04:02:38;;;;;;;;;;;;;;;3.54;80.12;98334.91;7389349;19;19915;-70
2022/12/07 04:05:05;;;;;;;;;;;;;;;3.57;80.10;98334.69;7383281;19;19919;-70
2022/12/07 04:07:31;;;;;;;;;;;;;;;3.55;79.83;98338.34;7388775;19;19938;-70
2022/12/07 04:09:58;;;;;;;;;;;;;;;3.44;80.10;98337.34;7390069;19;19958;-70
2022/12/07 04:12:25;;;;;;;;;;;;;;;3.60;79.75;98339.69;7389442;19;19922;-70
2022/12/07 04:14:51;;;;;;;;;;;;;;;3.65;79.00;98328.88;7387844;19;20351;-70
2022/12/07 04:17:18;;;;;;;;;;;;;;;3.58;78.35;98319.81;7390646;19;19943;-70
2022/12/07 04:19:44;;;;;;;;;;;;;;;3.43;79.07;98309.53;7390058;19;19915;-70
2022/12/07 04:22:11;;;;;;;;;;;;;;;3.32;80.04;98301.66;7391142;19;19923;-70
2022/12/07 04:24:38;;;;;;;;;;;;;;;3.19;80.64;98288.63;7386776;19;19949;-70
2022/12/07 04:27:04;;;;;;;;;;;;;;;3.20;81.23;98295.53;7387429;19;20027;-70
2022/12/07 04:29:31;;;;;;;;;;;;;;;3.39;80.72;98295.00;7388344;19;20298;-70
2022/12/07 04:31:58;;;;;;;;;;;;;;;3.47;80.14;98295.28;7389632;19;20379;-70
2022/12/07 04:34:24;;;;;;;;;;;;;;;3.50;80.19;98300.31;7390646;19;19976;-70
2022/12/07 04:36:51;;;;;;;;;;;;;;;3.55;79.92;98299.13;7391377;19;19922;-70
2022/12/07 04:39:22;;;;;;;;;;;;;;;3.55;79.73;98289.47;7390760;19;21840;-70
2022/12/07 04:41:48;;;;;;;;;;;;;;;3.48;79.82;98289.13;7389071;19;19943;-69
2022/12/07 04:44:15;;;;;;;;;;;;;;;3.44;80.06;98279.81;7389622;19;20355;-70
2022/12/07 04:46:42;;;;;;;;;;;;;;;3.50;80.32;98282.00;7387096;19;19914;-69
2022/12/07 04:49:09;;;;;;;;;;;;;;;3.47;80.19;98284.00;7388872;19;19947;-70
2022/12/07 04:51:35;;;;;;;;;;;;;;;3.55;79.82;98281.63;7388162;19;20276;-70
2022/12/07 04:54:02;;;;;;;;;;;;;;;3.60;79.82;98297.81;7389221;19;20328;-70
2022/12/07 04:56:29;;;;;;;;;;;;;;;3.50;80.19;98304.69;7387156;19;19923;-70
2022/12/07 04:58:55;;;;;;;;;;;;;;;3.40;80.32;98306.34;7388605;19;19918;-70
2022/12/07 05:01:22;;;;;;;;;;;;;;;3.58;80.21;98299.75;7380466;19;19926;-70
2022/12/07 05:03:49;;;;;;;;;;;;;;;3.47;79.99;98303.13;7387575;19;19918;-70
2022/12/07 05:06:15;;;;;;;;;;;;;;;3.35;79.94;98304.03;7385095;19;19949;-70
2022/12/07 05:08:42;;;;;;;;;;;;;;;3.29;79.69;98309.69;7391938;19;20372;-69
2022/12/07 05:11:09;;;;;;;;;;;;;;;3.14;79.53;98308.22;7389332;19;20267;-69
2022/12/07 05:13:35;;;;;;;;;;;;;;;3.00;79.92;98304.81;7384411;19;19919;-70
2022/12/07 05:16:02;;;;;;;;;;;;;;;3.11;80.00;98319.72;7387065;19;20324;-69
2022/12/07 05:18:29;;;;;;;;;;;;;;;3.17;80.30;98328.91;7389271;19;19911;-69
2022/12/07 05:20:55;;;;;;;;;;;;;;;3.21;80.16;98331.19;7385875;19;19922;-70
2022/12/07 05:23:22;;;;;;;;;;;;;;;3.27;79.68;98335.97;7388297;19;20386;-69
2022/12/07 05:25:48;;;;;;;;;;;;;;;3.24;79.74;98327.53;7385546;19;19923;-70
2022/12/07 05:28:15;;;;;;;;;;;;;;;3.11;79.90;98324.09;7386730;19;20364;-70
2022/12/07 05:30:41;;;;;;;;;;;;;;;3.06;79.91;98324.44;7386259;19;19947;-70
2022/12/07 05:33:08;;;;;;;;;;;;;;;2.90;79.71;98324.72;7387955;19;19971;-70
2022/12/07 05:35:35;;;;;;;;;;;;;;;2.88;80.07;98326.59;7383280;19;19923;-70
2022/12/07 05:38:01;;;;;;;;;;;;;;;2.98;80.05;98325.00;7383416;19;19923;-69
2022/12/07 05:40:28;;;;;;;;;;;;;;;3.01;79.99;98324.78;7381685;19;20235;-70
2022/12/07 05:42:54;;;;;;;;;;;;;;;2.93;80.47;98328.88;7385620;19;20341;-70
2022/12/07 05:45:28;;;;;;;;;;;;;;;2.93;80.34;98327.09;7386425;19;20369;-70
2022/12/07 05:47:54;;;;;;;;;;;;;;;3.00;80.62;98322.25;7385696;19;22157;-70
2022/12/07 05:50:21;;;;;;;;;;;;;;;3.00;80.50;98327.47;7382908;19;19918;-69
2022/12/07 05:52:59;;;;;;;;;;;;;;;2.99;80.85;98326.66;7388619;19;19935;-70
2022/12/07 05:55:25;;;;;;;;;;;;;;;2.99;81.02;98328.44;7386533;19;19949;-69
2022/12/07 06:00:38;;;;;;;;;;;;;;;3.15;81.18;98321.16;7379018;19;19926;-70
2022/12/07 06:03:05;;;;;;;;;;;;;;;3.17;81.29;98321.06;7387511;19;20351;-70
2022/12/07 06:05:31;;;;;;;;;;;;;;;3.20;81.27;98320.84;7384217;19;20461;-71
2022/12/07 06:07:58;;;;;;;;;;;;;;;3.23;81.36;98333.69;7389045;19;19923;-70
2022/12/07 06:10:31;;;;;;;;;;;;;;;3.26;81.32;98330.84;7381049;19;20791;-71
2022/12/07 06:12:57;;;;;;;;;;;;;;;3.34;81.18;98328.50;7383864;19;20008;-69
2022/12/07 06:15:24;;;;;;;;;;;;;;;3.39;80.99;98326.41;7384800;19;19919;-71
2022/12/07 06:17:51;;;;;;;;;;;;;;;3.43;81.08;98324.41;7389126;19;19936;-70
2022/12/07 06:20:17;;;;;;;;;;;;;;;3.45;80.74;98325.97;7383168;19;19934;-70
2022/12/07 06:22:44;;;;;;;;;;;;;;;3.32;80.77;98325.19;7383368;19;19926;-70
2022/12/07 06:25:10;;;;;;;;;;;;;;;3.37;80.58;98328.31;7385647;19;19935;-71
2022/12/07 06:27:37;;;;;;;;;;;;;;;3.41;80.55;98331.53;7379502;19;19915;-71
2022/12/07 06:30:06;;;;;;;;;;;;;;;3.47;80.88;98326.66;7380848;19;20035;-70
2022/12/07 06:32:33;;;;;;;;;;;;;;;3.57;80.30;98326.84;7386507;19;19915;-70
2022/12/07 06:35:03;;;;;;;;;;;;;;;3.50;79.88;98329.09;7389113;19;19915;-70
2022/12/07 06:37:29;;;;;;;;;;;;;;;3.54;79.90;98334.09;7385786;19;20399;-70
2022/12/07 06:39:56;;;;;;;;;;;;;;;3.44;80.17;98341.75;7386881;19;19918;-70
2022/12/07 06:42:22;;;;;;;;;;;;;;;3.46;80.26;98340.69;7384780;19;19922;-70
2022/12/07 06:44:49;;;;;;;;;;;;;;;3.45;80.29;98341.66;7380294;19;19918;-70
2022/12/07 06:47:15;;;;;;;;;;;;;;;3.50;79.80;98336.06;7381675;19;19926;-70
2022/12/07 06:50:02;;;;;;;;;;;;;;;3.38;80.08;98336.97;7384291;19;20334;-70
2022/12/07 06:52:30;;;;;;;;;;;;;;;3.38;80.12;98339.59;7385818;19;19994;-70
2022/12/07 06:54:56;;;;;;;;;;;;;;;3.32;80.13;98343.50;7387756;19;19949;-70
2022/12/07 06:57:23;;;;;;;;;;;;;;;3.27;80.42;98337.75;7383671;19;19930;-71
2022/12/07 06:59:49;;;;;;;;;;;;;;;3.34;80.25;98344.19;7383801;19;20320;-71
2022/12/07 07:02:16;;;;;;;;;;;;;;;3.40;79.97;98341.16;7382521;19;19943;-71
2022/12/07 07:04:43;;;;;;;;;;;;;;;3.56;79.35;98342.66;7386204;19;20006;-71
2022/12/07 07:07:11;;;;;;;;;;;;;;;3.55;79.17;98346.19;7387148;19;20271;-69
2022/12/07 07:09:37;;;;;;;;;;;;;;;3.52;78.99;98344.66;7385072;19;20472;-71
2022/12/07 07:12:04;;;;;;;;;;;;;;;3.60;79.10;98338.84;7384867;19;19919;-71
2022/12/07 07:14:31;;;;;;;;;;;;;;;3.41;79.79;98340.19;7386397;19;19951;-70
2022/12/07 07:16:57;;;;;;;;;;;;;;;3.45;79.98;98346.03;7383021;19;19943;-71
2022/12/07 07:19:24;;;;;;;;;;;;;;;3.43;80.07;98348.78;7381046;19;19947;-70
2022/12/07 07:21:50;;;;;;;;;;;;;;;3.57;79.91;98352.16;7380151;19;19926;-71
2022/12/07 07:24:17;;;;;;;;;;;;;;;3.68;79.70;98347.78;7386964;19;19954;-71
2022/12/07 07:26:43;;;;;;;;;;;;;;;3.69;79.35;98349.50;7386027;19;19950;-71
2022/12/07 07:29:10;;;;;;;;;;;;;;;3.76;78.72;98342.00;7386969;19;19927;-70
2022/12/07 07:31:37;;;;;;;;;;;;;;;3.66;79.32;98354.09;7384272;19;19947;-70
2022/12/07 07:34:03;;;;;;;;;;;;;;;3.74;79.25;98352.59;7383956;19;19915;-70
2022/12/07 07:36:30;;;;;;;;;;;;;;;3.68;79.63;98354.81;7381173;19;19923;-70
2022/12/07 07:38:56;;;;;;;;;;;;;;;3.75;79.54;98353.44;7388013;19;19987;-71
2022/12/07 07:41:23;;;;;;;;;;;;;;;3.76;79.46;98349.84;7380562;19;19937;-70
2022/12/07 07:43:49;;;;;;;;;;;;;;;3.83;79.48;98353.69;7382208;19;19929;-71
2022/12/07 07:46:16;;;;;;;;;;;;;;;3.85;79.18;98354.41;7381502;19;19948;-70
2022/12/07 07:48:43;;;;;;;;;;;;;;;3.89;78.96;98362.88;7385146;19;20360;-70
2022/12/07 07:51:10;;;;;;;;;;;;;;;4.01;78.10;98354.09;7379895;19;19947;-68
2022/12/07 07:53:36;;;;;;;;;;;;;;;4.09;77.85;98361.38;7383149;19;19930;-71
2022/12/07 07:56:03;;;;;;;;;;;;;;;4.15;77.88;98356.50;7384275;19;19926;-70
2022/12/07 07:58:29;;;;;;;;;;;;;;;4.12;77.80;98361.97;7384039;19;19962;-71
2022/12/07 08:00:56;;;;;;;;;;;;;;;4.11;77.97;98365.56;7390053;19;19918;-72
2022/12/07 08:03:23;;;;;;;;;;;;;;;4.19;78.20;98370.22;7391912;19;19919;-71
2022/12/07 08:05:49;;;;;;;;;;;;;;;4.24;78.13;98367.25;7387897;19;19959;-70
2022/12/07 08:08:16;;;;;;;;;;;;;;;4.22;77.88;98356.06;7388793;19;19947;-71
2022/12/07 08:10:42;;;;;;;;;;;;;;;4.40;77.51;98368.59;7385629;19;20339;-71
2022/12/07 08:13:13;;;;;;;;;;;;;;;4.52;76.69;98366.81;7390227;19;19926;-71
2022/12/07 08:15:46;;;;;;;;;;;;;;;4.50;76.14;98373.13;7391771;19;19919;-70
2022/12/07 08:18:13;;;;;;;;;;;;;;;4.48;75.94;98364.56;7389993;19;19954;-70
2022/12/07 08:20:40;;;;;;;;;;;;;;;4.58;75.56;98365.50;7386105;19;19919;-71
2022/12/07 08:23:06;;;;;;;;;;;;;;;4.47;76.44;98362.88;7390218;19;20312;-71
2022/12/07 08:25:33;;;;;;;;;;;;;;;4.54;76.72;98356.22;7385618;19;19943;-70
2022/12/07 08:28:00;;;;;;;;;;;;;;;4.50;77.39;98362.63;7390726;19;19910;-70
2022/12/07 08:30:27;;;;;;;;;;;;;;;4.60;76.88;98361.81;7385882;19;19925;-70
2022/12/07 08:32:54;;;;;;;;;;;;;;;4.76;76.31;98371.94;7390844;19;19947;-71
2022/12/07 08:35:21;;;;;;;;;;;;;;;4.82;75.67;98373.28;7391727;19;19922;-70
2022/12/07 08:37:48;;;;;;;;;;;;;;;4.84;75.23;98377.44;7388779;19;19939;-70
2022/12/07 08:40:15;;;;;;;;;;;;;;;4.96;74.78;98380.06;7386254;19;19925;-70
2022/12/07 08:42:44;;;;;;;;;;;;;;;5.00;74.49;98369.22;7383860;19;19929;-71
2022/12/07 08:45:12;;;;;;;;;;;;;;;5.06;75.03;98373.13;7388845;19;19946;-71
2022/12/07 08:47:40;;;;;;;;;;;;;;;5.13;74.62;98374.28;7389113;19;19938;-71
2022/12/07 08:50:07;;;;;;;;;;;;;;;5.17;73.75;98374.91;7386410;19;20332;-71
2022/12/07 08:52:34;;;;;;;;;;;;;;;5.25;73.71;98373.34;7385749;19;19939;-72
2022/12/07 08:55:01;;;;;;;;;;;;;;;5.34;73.38;98371.75;7387543;19;19934;-72
2022/12/07 08:57:28;;;;;;;;;;;;;;;5.40;73.81;98370.47;7387015;19;19911;-73
2022/12/07 08:59:54;;;;;;;;;;;;;;;5.53;73.14;98371.13;7382826;19;20019;-73
2022/12/07 09:02:21;;;;;;;;;;;;;;;5.43;73.30;98370.22;7386609;19;20002;-73
2022/12/07 09:04:47;;;;;;;;;;;;;;;5.57;72.89;98374.34;7389744;19;19911;-73
2022/12/07 09:07:14;;;;;;;;;;;;;;;5.61;71.74;98368.72;7386147;19;20228;-72
2022/12/07 09:09:40;;;;;;;;;;;;;;;5.56;70.90;98370.06;7390251;19;20337;-73
2022/12/07 09:12:08;;;;;;;;;;;;;;;5.62;69.04;98366.91;7386705;19;19943;-73
2022/12/07 09:14:35;;;;;;;;;;;;;;;5.67;69.48;98367.38;7385587;19;21202;-73
2022/12/07 09:17:08;;;;;;;;;;;;;;;5.75;68.60;98370.22;7385371;19;19919;-72
2022/12/07 09:19:34;;;;;;;;;;;;;;;5.90;68.92;98363.72;7388396;19;19954;-73
2022/12/07 09:22:01;;;;;;;;;;;;;;;6.03;67.87;98374.06;7383944;19;19947;-73
2022/12/07 09:24:28;;;;;;;;;;;;;;;5.94;67.52;98370.38;7390613;19;20339;-73
2022/12/07 09:26:55;;;;;;;;;;;;;;;5.92;66.90;98366.19;7385935;19;20285;-73
2022/12/07 09:29:21;;;;;;;;;;;;;;;6.07;67.07;98364.97;7387446;19;19930;-74
2022/12/07 09:31:48;;;;;;;;;;;;;;;6.00;67.63;98363.78;7382791;19;19923;-73
2022/12/07 09:34:17;;;;;;;;;;;;;;;6.13;67.44;98369.72;7386361;19;19918;-73
2022/12/07 09:36:43;;;;;;;;;;;;;;;6.04;68.00;98373.09;7388688;19;19951;-74
2022/12/07 09:39:10;;;;;;;;;;;;;;;6.04;67.20;98375.72;7386907;19;19926;-74
2022/12/07 09:41:48;;;;;;;;;;;;;;;6.21;67.66;98370.84;7388583;19;19914;-73
2022/12/07 09:44:22;;;;;;;;;;;;;;;6.18;66.92;98371.13;7388774;19;19986;-73
2022/12/07 09:46:50;;;;;;;;;;;;;;;6.24;67.26;98366.19;7383397;19;19934;-73
2022/12/07 09:49:20;;;;;;;;;;;;;;;5.77;65.94;98364.84;7379952;19;19919;-73
2022/12/07 09:52:02;;;;;;;;;;;;;;;5.91;66.73;98367.16;7385761;19;19973;-72
2022/12/07 09:54:29;;;;;;;;;;;;;;;6.09;66.81;98359.59;7384516;19;20355;-74
2022/12/07 09:56:58;;;;;;;;;;;;;;;6.03;66.78;98362.72;7383201;19;20612;-74
2022/12/07 09:59:24;;;;;;;;;;;;;;;6.12;65.96;98356.69;7387610;19;19914;-73
2022/12/07 10:01:51;;;;;;;;;;;;;;;6.15;66.80;98354.66;7385781;19;20343;-74
2022/12/07 10:04:19;;;;;;;;;;;;;;;6.08;66.24;98350.88;7382960;19;19929;-73
2022/12/07 10:06:47;;;;;;;;;;;;;;;5.85;66.21;98344.88;7382166;19;19938;-74
2022/12/07 10:09:15;;;;;;;;;;;;;;;5.98;66.40;98343.88;7386458;19;19923;-73
2022/12/07 10:12:00;;;;;;;;;;;;;;;5.93;66.93;98341.63;7386556;19;19923;-72
2022/12/07 10:14:28;;;;;;;;;;;;;;;5.74;66.64;98337.06;7384282;19;19918;-73
2022/12/07 10:17:33;;;;;;;;;;;;;;;5.82;67.48;98336.41;7388320;19;20012;-73
2022/12/07 10:20:11;;;;;;;;;;;;;;;5.84;66.59;98337.13;7388800;19;19939;-72
2022/12/07 10:22:38;;;;;;;;;;;;;;;6.01;66.13;98335.75;7383871;19;20273;-72
2022/12/07 10:25:08;;;;;;;;;;;;;;;6.12;67.26;98336.50;7383402;19;20466;-73
2022/12/07 10:27:35;;;;;;;;;;;;;;;5.90;66.48;98334.00;7385108;19;20340;-73
2022/12/07 10:30:02;;;;;;;;;;;;;;;6.01;66.59;98335.75;7381888;19;19918;-73
2022/12/07 10:32:33;;;;;;;;;;;;;;;5.63;66.70;98330.03;7384615;19;20012;-74
2022/12/07 10:35:18;;;;;;;;;;;;;;;5.73;67.15;98336.19;7385110;19;20011;-73
2022/12/07 10:37:45;;;;;;;;;;;;;;;5.81;67.51;98329.50;7387564;19;19960;-73
2022/12/07 10:40:33;;;;;;;;;;;;;;;5.66;67.40;98327.19;7387300;19;19919;-73
2022/12/07 10:43:03;;;;;;;;;;;;;;;5.69;66.09;98329.56;7385123;19;19910;-72
2022/12/07 10:45:30;;;;;;;;;;;;;;;5.78;66.16;98322.69;7380396;19;19915;-72
2022/12/07 10:47:59;;;;;;;;;;;;;;;5.79;66.48;98323.53;7382372;19;19939;-72
2022/12/07 10:50:26;;;;;;;;;;;;;;;5.86;66.81;98320.28;7384261;19;19930;-72
2022/12/07 10:52:55;;;;;;;;;;;;;;;5.85;66.67;98321.25;7385436;19;19915;-74
2022/12/07 10:55:41;;;;;;;;;;;;;;;5.87;66.56;98319.34;7382597;19;19966;-72
2022/12/07 10:58:07;;;;;;;;;;;;;;;5.90;66.24;98310.38;7380135;19;19918;-72
2022/12/07 11:00:54;;;;;;;;;;;;;;;5.89;67.14;98312.13;7381908;19;19947;-72
2022/12/07 11:03:32;;;;;;;;;;;;;;;6.01;67.48;98307.69;7380637;19;19922;-73
2022/12/07 11:06:05;;;;;;;;;;;;;;;6.04;67.17;98307.44;7380958;19;19922;-72
2022/12/07 11:08:51;;;;;;;;;;;;;;;6.15;66.97;98304.72;7386342;19;19915;-73
2022/12/07 11:11:21;;;;;;;;;;;;;;;6.27;67.51;98302.06;7382031;19;19922;-73
2022/12/07 11:13:56;;;;;;;;;;;;;;;6.04;67.85;98299.56;7382072;19;19929;-73
2022/12/07 11:16:32;;;;;;;;;;;;;;;6.12;68.53;98299.75;7383974;19;19947;-72
2022/12/07 11:19:03;;;;;;;;;;;;;;;6.23;68.39;98296.22;7381884;19;19970;-73
2022/12/07 11:21:31;;;;;;;;;;;;;;;6.03;69.33;98300.53;7378072;19;19990;-73
2022/12/07 11:24:06;;;;;;;;;;;;;;;6.06;69.23;98296.81;7382609;19;19919;-72
2022/12/07 11:26:48;;;;;;;;;;;;;;;5.93;69.20;98291.72;7379744;19;19938;-73
2022/12/07 11:29:15;;;;;;;;;;;;;;;6.20;69.14;98287.75;7385241;19;19923;-73
2022/12/07 11:31:41;;;;;;;;;;;;;;;6.12;69.13;98281.34;7383462;19;19941;-72
2022/12/07 11:34:27;;;;;;;;;;;;;;;5.94;69.21;98281.09;7385993;19;19922;-73
2022/12/07 11:36:55;;;;;;;;;;;;;;;5.90;69.59;98282.31;7388714;19;20455;-72
2022/12/07 11:39:21;;;;;;;;;;;;;;;5.92;70.49;98279.53;7389797;19;19915;-72
2022/12/07 11:42:00;;;;;;;;;;;;;;;5.62;70.61;98275.06;7391079;19;20560;-73
2022/12/07 11:44:29;;;;;;;;;;;;;;;5.60;70.68;98269.94;7390283;19;19926;-73
2022/12/07 11:46:58;;;;;;;;;;;;;;;5.59;70.82;98270.06;7390188;19;19947;-72
2022/12/07 11:49:40;;;;;;;;;;;;;;;5.67;71.02;98265.84;7390914;19;20259;-72
2022/12/07 11:52:10;;;;;;;;;;;;;;;5.36;71.75;98264.91;7387989;19;19926;-71
2022/12/07 11:54:36;;;;;;;;;;;;;;;5.66;71.40;98271.22;7386846;19;20041;-72
2022/12/07 11:57:04;;;;;;;;;;;;;;;5.49;71.63;98260.31;7388261;19;19926;-72
2022/12/07 11:59:39;;;;;;;;;;;;;;;5.53;71.66;98260.94;7385461;19;19923;-71
2022/12/07 12:02:16;;;;;;;;;;;;;;;5.46;71.38;98257.97;7387611;19;20365;-71
2022/12/07 12:04:42;;;;;;;;;;;;;;;5.59;71.23;98256.94;7391376;19;19934;-73
2022/12/07 12:07:10;;;;;;;;;;;;;;;5.37;71.55;98255.25;7388420;19;19923;-72
2022/12/07 12:09:56;;;;;;;;;;;;;;;5.25;71.47;98249.22;7386089;19;19982;-72
2022/12/07 12:12:36;;;;;;;;;;;;;;;5.34;71.71;98245.84;7389040;19;19915;-72
2022/12/07 12:15:26;;;;;;;;;;;;;;;5.45;71.30;98248.44;7386957;19;19985;-73
2022/12/07 12:17:56;;;;;;;;;;;;;;;5.38;71.40;98244.63;7381581;19;20286;-73
2022/12/07 12:20:23;;;;;;;;;;;;;;;5.44;71.64;98245.91;7386017;19;19919;-72
2022/12/07 12:22:53;;;;;;;;;;;;;;;5.55;71.09;98252.91;7387771;19;19915;-73
2022/12/07 12:25:27;;;;;;;;;;;;;;;5.64;71.22;98241.66;7390065;19;19918;-73
2022/12/07 12:27:55;;;;;;;;;;;;;;;5.63;69.92;98240.81;7383736;19;20277;-73
2022/12/07 12:30:33;;;;;;;;;;;;;;;5.73;70.57;98243.50;7387878;19;19911;-72
2022/12/07 12:33:23;;;;;;;;;;;;;;;5.84;70.44;98237.34;7388628;19;19922;-72
2022/12/07 12:36:08;;;;;;;;;;;;;;;5.91;70.33;98238.50;7381201;19;19941;-72
2022/12/07 12:38:48;;;;;;;;;;;;;;;5.73;69.91;98241.69;7386891;19;20262;-72
2022/12/07 12:41:33;;;;;;;;;;;;;;;5.67;70.42;98247.47;7386950;19;20276;-73
2022/12/07 12:43:59;;;;;;;;;;;;;;;5.52;70.38;98243.50;7387433;19;19930;-72
2022/12/07 12:46:29;;;;;;;;;;;;;;;5.71;71.03;98235.78;7388220;19;19915;-73
2022/12/07 12:48:57;;;;;;;;;;;;;;;5.48;70.69;98239.47;7388610;19;19927;-72
2022/12/07 12:51:40;;;;;;;;;;;;;;;5.41;70.75;98236.50;7383457;19;19926;-73
2022/12/07 12:54:23;;;;;;;;;;;;;;;5.49;70.65;98234.09;7388839;19;19914;-71
2022/12/07 12:57:08;;;;;;;;;;;;;;;5.52;70.52;98233.00;7385495;19;19919;-72
2022/12/07 12:59:39;;;;;;;;;;;;;;;5.59;71.23;98228.09;7386273;19;20351;-72
2022/12/07 13:02:21;;;;;;;;;;;;;;;5.56;70.31;98223.09;7388408;19;19911;-72
2022/12/07 13:05:10;;;;;;;;;;;;;;;5.58;70.08;98229.88;7390259;19;19919;-72
2022/12/07 13:07:52;;;;;;;;;;;;;;;5.53;70.56;98218.94;7386626;19;19918;-72
2022/12/07 13:10:30;;;;;;;;;;;;;;;5.44;71.03;98215.25;7383798;19;19975;-72
2022/12/07 13:12:58;;;;;;;;;;;;;;;5.43;71.04;98207.53;7389755;19;20462;-72